Elizabeth, WV (26143)

12:43 AM EST on February 12, 2016 (GMT -0500)
Reedy, WV | | Change Station
CLOSE
Current Station
Personal Weather Station
Location: Reedy, WV
Elevation: 750 ft
Nearby Weather Stations

Elev 750 ft 38.89 °N, 81.40 °W | Updated 2 minutes ago

Clear
Clear
6.4 °F
Feels Like 6 °F
N
0.0
Wind Variable Wind from WNW
Gusts 0.0 mph

Today
High -- | Low -- °F
--% Chance of Precip.
Yesterday
High -- | Low -- °F
Precip. -- in
Pressure 30.37 in
Visibility 3.0 miles
Clouds Clear
Windchill 6 °F
Dew Point 3 °F
Humidity 84%
Rainfall 0.00 in
Snow Depth Not available.
7:21 AM 5:58 PM
Waxing Crescent, 17% visible
METAR KPKB 120453Z AUTO 00000KT 3SM BR CLR M14/M16 A3032 RMK AO2 SLP284 T11391161 410561139 TSNO
Pressure 30.37 in
Visibility 3.0 miles
Clouds Clear
Windchill 6 °F
Dew Point 3 °F
Humidity 84%
Rainfall 0.00 in
Snow Depth Not available.
7:21 AM 5:58 PM
Waxing Crescent, 17% visible
METAR KPKB 120453Z AUTO 00000KT 3SM BR CLR M14/M16 A3032 RMK AO2 SLP284 T11391161 410561139 TSNO

10-Day Weather Forecast

Almanac

Astronomy

Feb. 12, 2016 Rise Set
Actual Time
Civil Twilight
Nautical Twilight
Astronomical Twilight
Moon
Length of Visible Light
Length of Day
Tomorrow will be .
, % of the Moon is Illuminated

Today's Extremes

State Highs State Lows

Community

WunderPhotos

Upload Photos

1,892,269 photos uploaded!

WunderBlog® & News

Nearby

Air Quality

  Air Quality AQ Index Pollutant
Not available.

Snow Depth

Station Depth Elevation

Earthquake Activity

City Distance Mag. Time & Date
Minimum magnitude displayed is 2.5.

Coastal Water Temperatures

Place Temperature

Stations

Nearby Weather Stations

Station Location Temp. Windchill Dew Point Humidity Wind Precip. Elev Updated Type
                   

Watches & Warnings

There are currently no watches in effect.